Time;durP1;ratioP1;P1;durP2;ratioP2;P2;SDS_P1;SDS_P2;PMS_P1;PMS_P2;Temp;Humidity;BMP_temperature;BMP_pressure;BME280_temperature;BME280_humidity;BME280_pressure;Samples;Min_cycle;Max_cycle;Signal;HPM_P1;HPM_P2
2021/12/10 00:01:32;;;;;;;28.48;13.75;;;;;;;;;;4894382;28;99801;-71
2021/12/10 00:03:59;;;;;;;29.70;13.05;;;;;;;;;;4901115;28;98447;-72
2021/12/10 00:06:28;;;;;;;19.88;12.43;;;;;;;;;;4897449;28;99621;-71
2021/12/10 00:08:56;;;;;;;29.63;14.07;;;;;;;;;;4897981;28;98360;-71
2021/12/10 00:11:27;;;;;;;31.48;13.40;;;;;;;;;;4897897;28;99755;-71
2021/12/10 00:13:53;;;;;;;24.98;13.68;;;;;;;;;;4898201;28;99144;-71
2021/12/10 00:16:20;;;;;;;27.98;12.80;;;;;;;;;;4897543;28;98442;-72
2021/12/10 00:18:53;;;;;;;33.30;13.32;;;;;;;;;;4897590;28;99269;-72
2021/12/10 00:21:21;;;;;;;25.92;13.15;;;;;;;;;;4896859;28;100243;-71
2021/12/10 00:23:50;;;;;;;31.90;13.95;;;;;;;;;;4897831;28;98614;-72
2021/12/10 00:26:23;;;;;;;32.15;13.25;;;;;;;;;;4900705;28;99415;-72
2021/12/10 00:28:51;;;;;;;24.02;13.82;;;;;;;;;;4897678;28;98389;-72
2021/12/10 00:31:31;;;;;;;28.63;13.25;;;;;;;;;;4897228;28;99585;-70
2021/12/10 00:34:25;;;;;;;27.48;13.23;;;;;;;;;;4897162;28;99734;-71
2021/12/10 00:36:53;;;;;;;21.48;13.20;;;;;;;;;;4860847;28;98533;-71
2021/12/10 00:39:22;;;;;;;27.92;15.07;;;;;;;;;;4898072;28;99445;-72
2021/12/10 00:41:48;;;;;;;31.08;15.13;;;;;;;;;;4896693;28;99973;-72
2021/12/10 00:44:16;;;;;;;25.75;14.25;;;;;;;;;;4897639;28;98388;-71
2021/12/10 00:46:42;;;;;;;29.17;15.63;;;;;;;;;;4899775;28;100036;-71
2021/12/10 00:49:09;;;;;;;21.80;14.77;;;;;;;;;;4897424;28;98450;-71
2021/12/10 00:51:36;;;;;;;29.05;15.27;;;;;;;;;;4897427;28;99632;-71
2021/12/10 00:54:03;;;;;;;25.38;14.13;;;;;;;;;;4897063;28;99729;-71
2021/12/10 00:56:29;;;;;;;29.58;15.55;;;;;;;;;;4897185;28;98549;-71
2021/12/10 00:58:56;;;;;;;29.25;14.93;;;;;;;;;;4897120;28;99319;-70
2021/12/10 01:01:25;;;;;;;25.70;13.88;;;;;;;;;;4896907;28;99539;-71
2021/12/10 01:03:53;;;;;;;30.98;15.32;;;;;;;;;;4897560;28;97794;-71
2021/12/10 01:06:20;;;;;;;33.42;17.08;;;;;;;;;;4880465;28;98734;-71
2021/12/10 01:08:48;;;;;;;29.00;15.70;;;;;;;;;;4899542;28;99037;-71
2021/12/10 01:11:19;;;;;;;29.77;14.90;;;;;;;;;;4896559;28;99477;-71
2021/12/10 01:13:48;;;;;;;20.92;14.93;;;;;;;;;;4896209;28;99287;-71
2021/12/10 01:24:51;;;;;;;23.25;14.68;;;;;;;;;;4896896;28;98857;-72
2021/12/10 01:27:32;;;;;;;28.35;15.82;;;;;;;;;;4896900;28;99671;-71
2021/12/10 01:30:05;;;;;;;28.90;15.45;;;;;;;;;;4896931;28;99000;-72
2021/12/10 01:32:33;;;;;;;27.30;15.57;;;;;;;;;;4900142;28;98366;-71
2021/12/10 01:34:59;;;;;;;27.42;16.20;;;;;;;;;;4896423;28;99258;-71
2021/12/10 01:37:26;;;;;;;26.48;15.00;;;;;;;;;;4896250;28;99115;-71
2021/12/10 01:39:54;;;;;;;28.13;14.95;;;;;;;;;;4896361;28;100125;-71
2021/12/10 01:44:54;;;;;;;22.95;13.90;;;;;;;;;;4896498;28;98376;-71
2021/12/10 01:47:25;;;;;;;29.55;14.60;;;;;;;;;;4896448;28;99516;-71
2021/12/10 01:49:52;;;;;;;19.40;13.07;;;;;;;;;;4896128;28;99955;-71
2021/12/10 01:52:20;;;;;;;22.45;13.93;;;;;;;;;;4896852;28;98550;-70
2021/12/10 01:54:53;;;;;;;29.15;13.60;;;;;;;;;;4899343;28;99104;-71
2021/12/10 01:57:21;;;;;;;26.15;12.90;;;;;;;;;;4896624;28;98476;-71
2021/12/10 01:59:47;;;;;;;25.02;13.82;;;;;;;;;;4895970;28;99573;-71
2021/12/10 02:02:16;;;;;;;29.38;13.77;;;;;;;;;;4895392;28;100491;-71
2021/12/10 02:04:43;;;;;;;26.67;14.35;;;;;;;;;;4896344;28;98453;-71
2021/12/10 02:07:11;;;;;;;25.98;13.63;;;;;;;;;;4893634;28;99869;-71
2021/12/10 02:09:37;;;;;;;21.30;13.32;;;;;;;;;;4895749;28;99161;-71
2021/12/10 02:12:05;;;;;;;24.75;14.15;;;;;;;;;;4896187;28;98431;-72
2021/12/10 02:14:31;;;;;;;25.27;13.43;;;;;;;;;;4895869;28;99354;-70
2021/12/10 02:16:59;;;;;;;27.33;13.55;;;;;;;;;;4898907;28;99727;-71
2021/12/10 02:19:26;;;;;;;25.17;14.07;;;;;;;;;;4896414;28;99970;-71
2021/12/10 02:21:53;;;;;;;22.20;12.80;;;;;;;;;;4895130;28;99836;-71
2021/12/10 02:24:20;;;;;;;27.30;12.30;;;;;;;;;;4895302;28;98375;-71
2021/12/10 02:26:55;;;;;;;31.10;13.48;;;;;;;;;;4895098;28;99473;-71
2021/12/10 02:29:24;;;;;;;24.25;12.75;;;;;;;;;;4878298;28;102339;-71
2021/12/10 02:31:52;;;;;;;24.10;13.50;;;;;;;;;;4895851;28;98385;-71
2021/12/10 02:34:18;;;;;;;27.27;13.63;;;;;;;;;;4895518;28;99703;-71
2021/12/10 02:36:45;;;;;;;24.83;12.50;;;;;;;;;;4895347;28;99978;-71
2021/12/10 02:39:13;;;;;;;24.63;12.82;;;;;;;;;;4898730;28;98375;-71
2021/12/10 02:41:40;;;;;;;21.48;12.20;;;;;;;;;;4895370;28;99539;-71
2021/12/10 02:44:09;;;;;;;27.67;12.52;;;;;;;;;;4896018;28;97639;-71
2021/12/10 02:46:35;;;;;;;19.63;12.88;;;;;;;;;;4895702;28;98694;-70
2021/12/10 02:49:02;;;;;;;27.02;12.80;;;;;;;;;;4894910;28;99755;-70
2021/12/10 02:51:31;;;;;;;25.50;12.52;;;;;;;;;;4894889;28;99103;-71
2021/12/10 02:53:58;;;;;;;18.60;11.88;;;;;;;;;;4895597;28;100185;-71
2021/12/10 02:56:25;;;;;;;19.55;11.95;;;;;;;;;;4895132;28;99754;-69
2021/12/10 02:58:53;;;;;;;23.45;12.27;;;;;;;;;;4898802;28;98453;-72
2021/12/10 03:01:40;;;;;;;24.55;12.57;;;;;;;;;;4894772;28;99660;-72
2021/12/10 03:04:07;;;;;;;19.10;11.70;;;;;;;;;;4894963;28;98532;-71
2021/12/10 03:06:36;;;;;;;26.45;12.25;;;;;;;;;;4895269;28;99391;-72
2021/12/10 03:09:04;;;;;;;24.15;12.68;;;;;;;;;;4895259;28;99037;-72
2021/12/10 03:11:33;;;;;;;21.98;11.30;;;;;;;;;;4895321;28;98856;-71
2021/12/10 03:14:05;;;;;;;20.35;11.23;;;;;;;;;;4894791;28;99083;-72
2021/12/10 03:16:32;;;;;;;23.33;11.85;;;;;;;;;;4894352;28;100451;-71
2021/12/10 03:18:59;;;;;;;20.55;11.10;;;;;;;;;;4895125;28;98378;-72
2021/12/10 03:21:25;;;;;;;17.48;10.13;;;;;;;;;;4897985;28;99518;-72
2021/12/10 03:23:51;;;;;;;16.38;9.77;;;;;;;;;;4895076;28;98425;-71
2021/12/10 03:26:19;;;;;;;15.75;9.05;;;;;;;;;;4895830;28;99469;-71
2021/12/10 03:28:46;;;;;;;17.67;9.88;;;;;;;;;;4895270;28;99891;-72
2021/12/10 03:31:13;;;;;;;16.90;8.70;;;;;;;;;;4879073;28;98559;-71
2021/12/10 03:33:40;;;;;;;12.93;8.10;;;;;;;;;;4896218;28;99164;-71
2021/12/10 03:36:07;;;;;;;17.50;8.40;;;;;;;;;;4894856;28;99593;-71
2021/12/10 03:38:34;;;;;;;16.27;7.95;;;;;;;;;;4895875;28;98553;-71
2021/12/10 03:41:01;;;;;;;10.07;7.28;;;;;;;;;;4894979;28;99270;-72
2021/12/10 03:43:27;;;;;;;12.60;7.07;;;;;;;;;;4898336;28;99691;-71
2021/12/10 03:45:56;;;;;;;13.98;7.40;;;;;;;;;;4895613;28;99524;-71
2021/12/10 03:48:24;;;;;;;17.52;7.65;;;;;;;;;;4895128;28;99779;-71
2021/12/10 03:50:50;;;;;;;13.30;6.82;;;;;;;;;;4895524;28;98364;-71
2021/12/10 03:53:18;;;;;;;15.25;7.47;;;;;;;;;;4895337;28;99535;-71
2021/12/10 03:55:45;;;;;;;10.07;6.97;;;;;;;;;;4894549;28;99799;-71
2021/12/10 03:58:12;;;;;;;13.02;6.75;;;;;;;;;;4895860;28;97550;-71
2021/12/10 04:00:43;;;;;;;9.40;6.65;;;;;;;;;;4895318;28;99006;-71
2021/12/10 04:03:11;;;;;;;9.23;6.18;;;;;;;;;;4894900;28;99621;-70
2021/12/10 04:05:37;;;;;;;11.68;5.95;;;;;;;;;;4898308;28;99793;-71
2021/12/10 04:08:04;;;;;;;14.40;6.47;;;;;;;;;;4894820;28;99944;-71
2021/12/10 04:10:30;;;;;;;9.13;5.88;;;;;;;;;;4894992;28;98477;-70
2021/12/10 04:12:57;;;;;;;17.00;5.97;;;;;;;;;;4878288;28;100584;-71
2021/12/10 04:15:24;;;;;;;13.25;6.07;;;;;;;;;;4894677;28;99910;-72
2021/12/10 04:17:52;;;;;;;11.50;5.60;;;;;;;;;;4895248;28;98418;-72
2021/12/10 04:20:19;;;;;;;8.82;5.45;;;;;;;;;;4895160;28;99243;-71
2021/12/10 04:22:47;;;;;;;6.85;4.85;;;;;;;;;;4894732;28;99942;-72
2021/12/10 04:25:15;;;;;;;8.65;4.60;;;;;;;;;;4895285;28;98480;-72
2021/12/10 04:27:42;;;;;;;13.50;5.60;;;;;;;;;;4897919;28;98746;-72
2021/12/10 04:30:10;;;;;;;12.73;5.00;;;;;;;;;;4894598;28;98979;-71
2021/12/10 04:32:37;;;;;;;10.80;5.00;;;;;;;;;;4895075;28;100261;-72
2021/12/10 04:35:04;;;;;;;6.97;4.78;;;;;;;;;;4894543;28;99432;-72
2021/12/10 04:37:30;;;;;;;13.38;4.93;;;;;;;;;;4894595;28;98434;-72
2021/12/10 04:39:56;;;;;;;9.02;4.72;;;;;;;;;;4894960;28;99536;-72
2021/12/10 04:42:24;;;;;;;7.65;4.72;;;;;;;;;;4894636;28;99664;-72
2021/12/10 04:44:54;;;;;;;7.30;4.82;;;;;;;;;;4894782;28;98343;-71
2021/12/10 04:47:20;;;;;;;10.40;5.78;;;;;;;;;;4898189;28;99792;-72
2021/12/10 04:49:47;;;;;;;9.93;5.28;;;;;;;;;;4897815;28;98428;-72
2021/12/10 04:52:13;;;;;;;8.13;4.88;;;;;;;;;;4897914;28;99505;-71
2021/12/10 04:54:40;;;;;;;13.55;5.88;;;;;;;;;;4897239;28;100612;-71
2021/12/10 04:57:06;;;;;;;11.20;5.97;;;;;;;;;;4897910;28;98379;-71
2021/12/10 04:59:34;;;;;;;8.57;5.35;;;;;;;;;;4897932;28;98929;-72
2021/12/10 05:02:01;;;;;;;11.77;5.32;;;;;;;;;;4896971;28;99212;-72
2021/12/10 05:04:28;;;;;;;10.18;5.63;;;;;;;;;;4898002;28;98627;-72
2021/12/10 05:06:55;;;;;;;13.63;5.90;;;;;;;;;;4897865;28;99943;-72
2021/12/10 05:09:22;;;;;;;8.65;5.43;;;;;;;;;;4900680;28;100152;-71
2021/12/10 05:11:49;;;;;;;10.23;5.25;;;;;;;;;;4898417;28;99433;-71
2021/12/10 05:14:16;;;;;;;10.45;5.25;;;;;;;;;;4896366;28;99701;-71
2021/12/10 05:16:44;;;;;;;9.43;5.40;;;;;;;;;;4897751;28;98243;-72
2021/12/10 05:19:12;;;;;;;6.43;4.57;;;;;;;;;;4897102;28;99486;-71
2021/12/10 05:21:40;;;;;;;11.73;5.70;;;;;;;;;;4897211;28;99382;-71
2021/12/10 05:24:08;;;;;;;10.48;5.22;;;;;;;;;;4897528;28;98375;-72
2021/12/10 05:26:35;;;;;;;6.82;5.22;;;;;;;;;;4897365;28;99417;-72
2021/12/10 05:29:03;;;;;;;8.23;4.82;;;;;;;;;;4897045;28;99336;-72
2021/12/10 05:31:30;;;;;;;11.18;5.00;;;;;;;;;;4900979;28;98365;-71
2021/12/10 05:33:56;;;;;;;8.75;4.82;;;;;;;;;;4897129;28;99744;-72
2021/12/10 05:36:23;;;;;;;10.02;4.82;;;;;;;;;;4898115;28;97777;-71
2021/12/10 05:38:49;;;;;;;11.88;5.25;;;;;;;;;;4897620;28;99222;-72
2021/12/10 05:41:16;;;;;;;8.95;4.70;;;;;;;;;;4896594;28;99831;-71
2021/12/10 05:43:42;;;;;;;9.30;4.40;;;;;;;;;;4897041;28;99222;-71
2021/12/10 05:46:09;;;;;;;8.77;4.97;;;;;;;;;;4897279;28;99631;-72
2021/12/10 05:48:36;;;;;;;10.23;4.63;;;;;;;;;;4896883;28;99495;-71
2021/12/10 05:51:03;;;;;;;12.05;4.60;;;;;;;;;;4897292;28;98444;-71
2021/12/10 05:53:29;;;;;;;12.90;4.47;;;;;;;;;;4899958;28;99360;-71
2021/12/10 05:55:56;;;;;;;12.73;4.72;;;;;;;;;;4897053;28;98421;-72
2021/12/10 05:58:22;;;;;;;10.10;4.25;;;;;;;;;;4896966;28;99545;-72
2021/12/10 06:00:51;;;;;;;9.10;4.50;;;;;;;;;;4896953;28;99143;-72
2021/12/10 06:03:19;;;;;;;8.07;4.72;;;;;;;;;;4896988;28;100196;-71
2021/12/10 06:05:45;;;;;;;11.20;4.50;;;;;;;;;;4897229;28;99744;-71
2021/12/10 06:08:13;;;;;;;13.07;4.60;;;;;;;;;;4895758;28;100594;-71
2021/12/10 06:10:40;;;;;;;8.20;4.57;;;;;;;;;;4896933;28;98364;-71
2021/12/10 06:13:07;;;;;;;10.48;4.97;;;;;;;;;;4897036;28;99491;-70
2021/12/10 06:15:34;;;;;;;15.00;4.60;;;;;;;;;;4899483;28;102845;-71
2021/12/10 06:18:00;;;;;;;9.40;4.45;;;;;;;;;;4880186;28;100022;-71
2021/12/10 06:20:33;;;;;;;13.93;4.40;;;;;;;;;;4896513;28;99231;-69
2021/12/10 06:23:00;;;;;;;8.55;4.85;;;;;;;;;;4896361;28;98410;-71
2021/12/10 06:25:30;;;;;;;10.73;4.90;;;;;;;;;;4897047;28;98976;-71
2021/12/10 06:27:56;;;;;;;10.57;4.30;;;;;;;;;;4896464;28;99840;-71
2021/12/10 06:30:25;;;;;;;7.35;4.07;;;;;;;;;;4896734;28;98437;-71
2021/12/10 06:32:54;;;;;;;13.10;4.47;;;;;;;;;;4896087;28;99167;-71
2021/12/10 06:35:22;;;;;;;11.77;5.70;;;;;;;;;;4895765;28;100046;-71
2021/12/10 06:37:48;;;;;;;11.02;4.75;;;;;;;;;;4899794;28;98538;-71
2021/12/10 06:40:19;;;;;;;8.70;4.97;;;;;;;;;;4896165;28;100032;-71
2021/12/10 06:42:45;;;;;;;12.68;5.50;;;;;;;;;;4896588;28;98363;-70
2021/12/10 06:45:13;;;;;;;8.07;4.85;;;;;;;;;;4896401;28;99340;-71
2021/12/10 06:47:44;;;;;;;13.45;5.03;;;;;;;;;;4896045;28;99987;-71
2021/12/10 06:50:10;;;;;;;16.83;4.93;;;;;;;;;;4896531;28;97697;-71
2021/12/10 06:52:37;;;;;;;9.10;5.32;;;;;;;;;;4896472;28;98822;-71
2021/12/10 06:55:03;;;;;;;13.18;5.18;;;;;;;;;;4895940;28;99923;-71
2021/12/10 06:57:31;;;;;;;6.25;5.00;;;;;;;;;;4898947;28;98958;-71
2021/12/10 06:59:57;;;;;;;11.80;5.53;;;;;;;;;;4895833;28;99815;-71
2021/12/10 07:02:23;;;;;;;12.18;5.47;;;;;;;;;;4895509;28;98468;-71
2021/12/10 07:04:50;;;;;;;14.43;5.53;;;;;;;;;;4895961;28;99625;-71
2021/12/10 07:07:16;;;;;;;20.40;5.88;;;;;;;;;;4895741;28;100133;-75
2021/12/10 07:09:43;;;;;;;13.00;5.90;;;;;;;;;;4896122;28;98388;-73
2021/12/10 07:12:09;;;;;;;15.18;5.82;;;;;;;;;;4895394;28;99416;-73
2021/12/10 07:14:36;;;;;;;12.18;4.97;;;;;;;;;;4895483;28;98865;-75
2021/12/10 07:17:04;;;;;;;11.43;5.63;;;;;;;;;;4895767;28;98494;-72
2021/12/10 07:19:30;;;;;;;10.35;5.20;;;;;;;;;;4898655;28;99551;-72
2021/12/10 07:21:56;;;;;;;13.15;5.28;;;;;;;;;;4895316;28;99083;-71
2021/12/10 07:24:23;;;;;;;12.93;5.55;;;;;;;;;;4895919;28;100025;-70
2021/12/10 07:26:50;;;;;;;10.88;5.03;;;;;;;;;;4895525;28;99536;-70
2021/12/10 07:29:16;;;;;;;12.25;4.60;;;;;;;;;;4895815;28;98483;-71
2021/12/10 07:31:44;;;;;;;11.95;4.70;;;;;;;;;;4895482;28;99951;-70
2021/12/10 07:34:10;;;;;;;14.07;5.05;;;;;;;;;;4895294;28;99896;-71
2021/12/10 07:36:38;;;;;;;10.65;5.22;;;;;;;;;;4895528;28;98344;-71
2021/12/10 07:39:07;;;;;;;10.18;4.80;;;;;;;;;;4878924;28;101008;-71
2021/12/10 07:41:33;;;;;;;7.80;4.93;;;;;;;;;;4898274;28;99531;-71
2021/12/10 07:44:00;;;;;;;10.70;5.65;;;;;;;;;;4895742;28;99216;-70
2021/12/10 07:46:28;;;;;;;8.38;5.22;;;;;;;;;;4893685;28;100701;-70
2021/12/10 07:48:55;;;;;;;8.35;4.70;;;;;;;;;;4895524;28;98336;-71
2021/12/10 07:51:25;;;;;;;10.88;4.82;;;;;;;;;;4895287;28;99795;-71
2021/12/10 07:53:55;;;;;;;10.77;5.57;;;;;;;;;;4894866;28;99636;-70
2021/12/10 07:56:21;;;;;;;10.13;4.82;;;;;;;;;;4895070;28;98441;-70
2021/12/10 07:58:47;;;;;;;17.38;6.22;;;;;;;;;;4894994;28;99757;-71
2021/12/10 08:01:18;;;;;;;16.20;5.13;;;;;;;;;;4895049;28;100173;-71
2021/12/10 08:03:45;;;;;;;9.83;4.87;;;;;;;;;;4899210;28;97661;-71
2021/12/10 08:06:11;;;;;;;11.27;5.55;;;;;;;;;;4895015;28;99638;-70
2021/12/10 08:08:38;;;;;;;12.48;5.20;;;;;;;;;;4895442;28;98601;-71
2021/12/10 08:11:05;;;;;;;12.30;4.88;;;;;;;;;;4894820;28;99877;-71
2021/12/10 08:13:32;;;;;;;8.55;4.50;;;;;;;;;;4894491;28;100279;-72
2021/12/10 08:15:58;;;;;;;11.10;5.00;;;;;;;;;;4894725;28;98573;-71
2021/12/10 08:18:25;;;;;;;10.73;4.55;;;;;;;;;;4895276;28;99841;-70
2021/12/10 08:20:54;;;;;;;14.43;5.32;;;;;;;;;;4894627;28;99114;-70
2021/12/10 08:23:20;;;;;;;12.07;4.72;;;;;;;;;;4879222;28;98593;-70
2021/12/10 08:25:47;;;;;;;14.88;5.55;;;;;;;;;;4901324;28;99331;-70
2021/12/10 08:28:13;;;;;;;8.88;4.25;;;;;;;;;;4898984;28;97635;-70
2021/12/10 08:30:40;;;;;;;8.75;4.63;;;;;;;;;;4898542;28;98317;-70
2021/12/10 08:33:12;;;;;;;8.55;4.43;;;;;;;;;;4897587;28;100967;-70
2021/12/10 08:35:40;;;;;;;12.63;4.60;;;;;;;;;;4898076;28;99323;-70
2021/12/10 08:38:06;;;;;;;9.38;4.68;;;;;;;;;;4898190;28;99511;-71
2021/12/10 08:40:35;;;;;;;13.25;4.60;;;;;;;;;;4897488;28;99821;-70
2021/12/10 08:43:02;;;;;;;18.83;4.45;;;;;;;;;;4898034;28;98345;-71
2021/12/10 08:45:28;;;;;;;9.10;4.78;;;;;;;;;;4898206;28;100188;-71
2021/12/10 08:47:55;;;;;;;11.02;4.88;;;;;;;;;;4901089;28;99194;-70
2021/12/10 08:50:23;;;;;;;10.55;4.90;;;;;;;;;;4898105;28;99695;-69
2021/12/10 08:52:51;;;;;;;15.88;5.28;;;;;;;;;;4898087;28;98342;-72
2021/12/10 08:55:17;;;;;;;12.13;4.45;;;;;;;;;;4897834;28;99399;-70
2021/12/10 08:57:46;;;;;;;21.40;5.40;;;;;;;;;;4898014;28;98785;-71
2021/12/10 09:00:13;;;;;;;13.98;4.70;;;;;;;;;;4896942;28;100644;-70
2021/12/10 09:02:39;;;;;;;9.75;4.72;;;;;;;;;;4897767;28;98447;-70
2021/12/10 09:05:06;;;;;;;15.43;5.18;;;;;;;;;;4897711;28;99874;-70
2021/12/10 09:07:33;;;;;;;17.35;4.72;;;;;;;;;;4900472;28;99814;-72
2021/12/10 09:09:59;;;;;;;12.48;5.30;;;;;;;;;;4897348;28;99466;-70
2021/12/10 09:12:27;;;;;;;18.05;4.90;;;;;;;;;;4897368;28;99646;-70
2021/12/10 09:14:55;;;;;;;13.93;5.25;;;;;;;;;;4897357;28;98563;-70
2021/12/10 09:17:24;;;;;;;12.15;5.15;;;;;;;;;;4898080;28;99451;-70
2021/12/10 09:19:55;;;;;;;13.60;4.85;;;;;;;;;;4897376;28;99486;-71
2021/12/10 09:22:23;;;;;;;10.23;4.63;;;;;;;;;;4880382;28;98461;-70
2021/12/10 09:24:51;;;;;;;12.15;5.10;;;;;;;;;;4897160;28;99361;-70
2021/12/10 09:27:18;;;;;;;9.65;5.13;;;;;;;;;;4897206;28;99890;-71
2021/12/10 09:29:45;;;;;;;10.35;5.57;;;;;;;;;;4900838;28;98410;-71
2021/12/10 09:32:14;;;;;;;19.48;6.20;;;;;;;;;;4897189;28;100018;-71
2021/12/10 09:34:40;;;;;;;16.70;5.45;;;;;;;;;;4896838;28;98556;-71
2021/12/10 09:37:07;;;;;;;15.18;5.20;;;;;;;;;;4897481;28;99823;-70
2021/12/10 09:39:34;;;;;;;17.13;5.35;;;;;;;;;;4897254;28;98757;-72
2021/12/10 09:42:00;;;;;;;12.32;5.55;;;;;;;;;;4898024;28;97669;-70
2021/12/10 09:44:32;;;;;;;13.07;4.90;;;;;;;;;;4897454;28;98567;-70
2021/12/10 09:46:59;;;;;;;13.07;4.97;;;;;;;;;;4896889;28;99535;-71
2021/12/10 09:49:27;;;;;;;15.27;5.65;;;;;;;;;;4896378;28;99204;-70
2021/12/10 09:51:56;;;;;;;11.50;6.00;;;;;;;;;;4899862;28;100085;-71
2021/12/10 09:54:23;;;;;;;14.63;6.03;;;;;;;;;;4897346;28;98372;-71
2021/12/10 09:56:52;;;;;;;14.65;5.70;;;;;;;;;;4897302;28;99461;-71
2021/12/10 09:59:19;;;;;;;15.63;5.43;;;;;;;;;;4896821;28;99913;-71
2021/12/10 10:01:47;;;;;;;12.13;5.72;;;;;;;;;;4896927;28;98407;-71
2021/12/10 10:04:17;;;;;;;12.98;5.72;;;;;;;;;;4879878;28;100286;-71
2021/12/10 10:06:46;;;;;;;11.00;6.22;;;;;;;;;;4897177;28;98931;-71
2021/12/10 10:09:13;;;;;;;11.52;5.30;;;;;;;;;;4897018;28;98341;-71
2021/12/10 10:11:43;;;;;;;17.73;6.15;;;;;;;;;;4896867;28;99572;-71
2021/12/10 10:14:09;;;;;;;13.75;6.25;;;;;;;;;;4882685;28;100567;-71
2021/12/10 10:16:43;;;;;;;17.58;6.22;;;;;;;;;;4896122;28;99791;-71
2021/12/10 10:19:14;;;;;;;21.60;6.35;;;;;;;;;;4896525;28;99905;-71
2021/12/10 10:21:43;;;;;;;13.48;5.90;;;;;;;;;;4896898;28;98679;-71
2021/12/10 10:24:10;;;;;;;11.05;6.97;;;;;;;;;;4896688;28;99468;-71
2021/12/10 10:26:40;;;;;;;12.32;6.45;;;;;;;;;;4896341;28;99310;-71
2021/12/10 10:29:11;;;;;;;15.45;7.13;;;;;;;;;;4896311;28;99445;-71
2021/12/10 10:31:39;;;;;;;13.20;6.90;;;;;;;;;;4897136;28;99404;-71
2021/12/10 10:34:07;;;;;;;14.43;7.85;;;;;;;;;;4896127;28;100158;-70
2021/12/10 10:36:34;;;;;;;15.77;9.18;;;;;;;;;;4899875;28;98312;-70
2021/12/10 10:39:04;;;;;;;10.77;7.65;;;;;;;;;;4895702;28;100534;-70
2021/12/10 10:41:33;;;;;;;12.80;7.65;;;;;;;;;;4896220;28;98435;-71
2021/12/10 10:44:01;;;;;;;14.00;6.90;;;;;;;;;;4896515;28;99571;-70
2021/12/10 10:46:29;;;;;;;9.48;6.10;;;;;;;;;;4895173;28;100134;-71
2021/12/10 10:48:55;;;;;;;13.23;6.38;;;;;;;;;;4896330;28;98383;-70
2021/12/10 10:51:33;;;;;;;14.15;6.20;;;;;;;;;;4896331;28;98898;-71
2021/12/10 10:54:02;;;;;;;13.25;6.30;;;;;;;;;;4895566;28;99846;-71
2021/12/10 10:56:33;;;;;;;16.85;6.03;;;;;;;;;;4896762;28;97817;-71
2021/12/10 10:59:03;;;;;;;13.13;6.60;;;;;;;;;;4899090;28;98555;-71
2021/12/10 11:01:32;;;;;;;8.45;4.72;;;;;;;;;;4896359;28;98389;-71
2021/12/10 11:04:25;;;;;;;10.63;5.22;;;;;;;;;;4895758;28;99608;-71
2021/12/10 11:06:55;;;;;;;16.20;5.88;;;;;;;;;;4895745;28;99665;-71
2021/12/10 11:09:22;;;;;;;18.10;6.45;;;;;;;;;;4896152;28;98382;-71
2021/12/10 11:11:53;;;;;;;15.73;5.60;;;;;;;;;;4896132;28;99455;-71
2021/12/10 11:14:24;;;;;;;11.98;5.05;;;;;;;;;;4895519;28;100476;-71
2021/12/10 11:16:52;;;;;;;8.95;5.40;;;;;;;;;;4894099;28;98568;-71
2021/12/10 11:19:21;;;;;;;12.77;5.45;;;;;;;;;;4898413;28;99604;-71
2021/12/10 11:21:53;;;;;;;12.35;5.50;;;;;;;;;;4895722;28;97784;-71
2021/12/10 11:24:25;;;;;;;13.60;5.60;;;;;;;;;;4895710;28;98758;-71
2021/12/10 11:26:55;;;;;;;18.33;6.20;;;;;;;;;;4895628;28;99533;-71
2021/12/10 11:29:29;;;;;;;14.25;6.97;;;;;;;;;;4895347;28;99175;-71
2021/12/10 11:31:57;;;;;;;11.82;6.00;;;;;;;;;;4894438;28;101749;-71
2021/12/10 11:34:44;;;;;;;20.95;6.28;;;;;;;;;;4895293;28;100036;-71
2021/12/10 11:37:12;;;;;;;14.00;6.80;;;;;;;;;;4895736;28;98434;-71
2021/12/10 11:39:46;;;;;;;13.63;5.68;;;;;;;;;;4895676;28;99492;-71
2021/12/10 11:42:32;;;;;;;13.60;5.85;;;;;;;;;;4898095;28;99648;-71
2021/12/10 11:45:16;;;;;;;15.63;5.93;;;;;;;;;;4895604;28;99589;-71
2021/12/10 11:47:44;;;;;;;12.35;5.43;;;;;;;;;;4895711;28;98916;-71
2021/12/10 11:50:19;;;;;;;14.15;5.28;;;;;;;;;;4895730;28;98300;-71
2021/12/10 11:52:58;;;;;;;11.90;5.05;;;;;;;;;;4895510;28;98752;-71
2021/12/10 11:55:25;;;;;;;12.43;5.57;;;;;;;;;;4893448;28;101350;-71
2021/12/10 11:57:51;;;;;;;13.20;5.80;;;;;;;;;;4895521;28;98430;-71
2021/12/10 12:00:19;;;;;;;11.65;4.78;;;;;;;;;;4895305;28;98752;-71
2021/12/10 12:02:46;;;;;;;8.43;4.65;;;;;;;;;;4895194;28;99741;-71
2021/12/10 12:05:17;;;;;;;14.70;5.35;;;;;;;;;;4898232;28;98534;-71
2021/12/10 12:07:45;;;;;;;10.70;5.68;;;;;;;;;;4894910;28;99661;-71
2021/12/10 12:10:22;;;;;;;15.02;5.97;;;;;;;;;;4895343;28;98458;-70
2021/12/10 12:12:53;;;;;;;12.65;5.25;;;;;;;;;;4895721;28;99381;-71
2021/12/10 12:15:29;;;;;;;13.02;5.50;;;;;;;;;;4894450;28;99919;-71
2021/12/10 12:17:57;;;;;;;13.63;5.68;;;;;;;;;;4895157;28;98261;-71
2021/12/10 12:20:26;;;;;;;12.70;4.95;;;;;;;;;;4878149;28;99332;-71
2021/12/10 12:25:42;;;;;;;11.15;4.75;;;;;;;;;;4895213;28;98499;-71
2021/12/10 12:28:24;;;;;;;12.40;5.05;;;;;;;;;;4898253;28;99023;-71
2021/12/10 12:31:13;;;;;;;12.20;4.65;;;;;;;;;;4895283;28;98365;-71
2021/12/10 12:33:58;;;;;;;15.15;5.13;;;;;;;;;;4895033;28;99578;-71
2021/12/10 12:36:36;;;;;;;11.25;5.43;;;;;;;;;;4894096;28;99601;-71
2021/12/10 12:39:05;;;;;;;11.90;4.20;;;;;;;;;;4895256;28;97515;-72
2021/12/10 12:41:35;;;;;;;8.43;4.10;;;;;;;;;;4895002;28;98494;-71
2021/12/10 12:44:10;;;;;;;15.82;4.18;;;;;;;;;;4894688;28;99303;-72
2021/12/10 12:47:14;;;;;;;9.68;4.38;;;;;;;;;;4893920;28;99782;-72
2021/12/10 12:49:46;;;;;;;7.43;4.00;;;;;;;;;;4894931;28;100126;-72
2021/12/10 12:52:38;;;;;;;8.40;3.80;;;;;;;;;;4897670;28;99641;-72
2021/12/10 12:55:19;;;;;;;10.55;3.80;;;;;;;;;;4890186;28;98491;-72
2021/12/10 12:57:49;;;;;;;13.13;4.07;;;;;;;;;;4894418;28;99816;-72
2021/12/10 13:00:39;;;;;;;10.18;4.03;;;;;;;;;;4894630;28;98333;-72
2021/12/10 13:03:08;;;;;;;9.25;3.80;;;;;;;;;;4894943;28;99342;-72
2021/12/10 13:05:53;;;;;;;8.88;3.78;;;;;;;;;;4877400;28;100351;-72
2021/12/10 13:08:28;;;;;;;12.43;3.47;;;;;;;;;;4894775;28;98210;-72
2021/12/10 13:11:15;;;;;;;9.82;4.15;;;;;;;;;;4897805;28;99394;-71
2021/12/10 13:13:46;;;;;;;11.55;3.85;;;;;;;;;;4896818;28;100496;-72
2021/12/10 13:16:14;;;;;;;5.13;3.50;;;;;;;;;;4893588;28;98359;-72
2021/12/10 13:18:42;;;;;;;12.07;4.15;;;;;;;;;;4897437;28;99541;-71
2021/12/10 13:21:11;;;;;;;7.75;3.85;;;;;;;;;;4897745;28;98379;-71
2021/12/10 13:23:38;;;;;;;10.85;4.10;;;;;;;;;;4897534;28;99362;-71
2021/12/10 13:26:05;;;;;;;9.88;4.00;;;;;;;;;;4897392;28;99920;-71
2021/12/10 13:28:32;;;;;;;7.70;3.83;;;;;;;;;;4897209;28;98530;-72
2021/12/10 13:31:01;;;;;;;10.27;3.78;;;;;;;;;;4898005;28;99351;-71
2021/12/10 13:33:30;;;;;;;10.02;3.95;;;;;;;;;;4897115;28;99526;-71
2021/12/10 13:35:57;;;;;;;11.65;4.20;;;;;;;;;;4900785;28;98458;-70
2021/12/10 13:38:25;;;;;;;9.73;4.03;;;;;;;;;;4896734;28;100466;-70
2021/12/10 13:40:52;;;;;;;9.48;4.35;;;;;;;;;;4897275;28;99531;-70
2021/12/10 13:43:23;;;;;;;5.82;4.18;;;;;;;;;;4897646;28;99380;-70
2021/12/10 13:45:59;;;;;;;8.65;4.20;;;;;;;;;;4896881;28;99859;-70
2021/12/10 13:48:39;;;;;;;13.00;4.75;;;;;;;;;;4897194;28;98466;-70
2021/12/10 13:51:06;;;;;;;10.43;3.72;;;;;;;;;;4897364;28;99357;-70
2021/12/10 13:53:33;;;;;;;6.47;3.97;;;;;;;;;;4896541;28;100162;-70
2021/12/10 13:56:01;;;;;;;17.40;4.68;;;;;;;;;;4897776;28;97732;-70
2021/12/10 13:58:31;;;;;;;9.18;4.18;;;;;;;;;;4900255;28;98667;-70
2021/12/10 14:01:04;;;;;;;9.70;4.45;;;;;;;;;;4897110;28;98444;-71
2021/12/10 14:03:37;;;;;;;9.73;4.10;;;;;;;;;;4896772;28;99882;-70
2021/12/10 14:06:04;;;;;;;10.13;4.20;;;;;;;;;;4896360;28;99851;-70
2021/12/10 14:08:30;;;;;;;10.02;4.28;;;;;;;;;;4897097;28;98542;-70
2021/12/10 14:11:11;;;;;;;9.52;4.03;;;;;;;;;;4896931;28;99185;-71
2021/12/10 14:13:39;;;;;;;10.77;4.63;;;;;;;;;;4896707;28;99013;-72
2021/12/10 14:16:10;;;;;;;8.38;4.15;;;;;;;;;;4896594;28;98503;-71
2021/12/10 14:18:56;;;;;;;9.10;4.00;;;;;;;;;;4896829;28;99197;-71
2021/12/10 14:21:44;;;;;;;7.53;4.10;;;;;;;;;;4898943;28;98899;-71
2021/12/10 14:24:39;;;;;;;7.82;4.38;;;;;;;;;;4896687;28;98595;-71
2021/12/10 14:27:26;;;;;;;5.45;3.92;;;;;;;;;;4896053;28;101737;-71
2021/12/10 14:30:20;;;;;;;9.85;4.43;;;;;;;;;;4896151;28;99117;-71
2021/12/10 14:33:04;;;;;;;12.13;4.80;;;;;;;;;;4880660;28;100096;-71
2021/12/10 14:35:38;;;;;;;9.98;4.70;;;;;;;;;;4896255;28;99208;-71
2021/12/10 14:38:06;;;;;;;9.30;4.60;;;;;;;;;;4896626;28;98452;-71
2021/12/10 14:40:54;;;;;;;8.80;3.85;;;;;;;;;;4896536;28;99314;-71
2021/12/10 14:43:42;;;;;;;11.65;4.57;;;;;;;;;;4896183;28;99136;-71
2021/12/10 14:46:08;;;;;;;8.70;3.95;;;;;;;;;;4880617;28;98397;-71
2021/12/10 14:48:37;;;;;;;11.13;4.53;;;;;;;;;;4896664;28;98939;-71
2021/12/10 14:51:23;;;;;;;10.25;4.05;;;;;;;;;;4896503;28;98296;-72
2021/12/10 14:54:15;;;;;;;8.43;3.95;;;;;;;;;;4896099;28;99317;-71
2021/12/10 14:57:02;;;;;;;6.18;4.50;;;;;;;;;;4895498;28;100257;-71